KHVS

Hartsville Regional Airport

Hartsville, South Carolina, USA
METAR KHVS 170315Z AUTO 00000KT 10SM SCT035 BKN050 22/22 A3009 RMK AO2
Observed Flight Rules
Oct-17 @ 03:15 UTC (11 minutes ago) Visual Flight Rules
Visibility Clouds
10 miles
  • Scattered at 3,500' AGL
  • Broken at 5,000' AGL
Temperatures Readings
Current 22°C / 72°F
Dewpoint 22°C / 72°F
Humidity 100%
Altimeter 30.09" Hg
Pressure 1019 hPa
Elevation 111
METAR KHVS 170315Z AUTO 00000KT 10SM SCT035 BKN050 22/22 A3009 RMK AO2
Observed Flight Rules
Oct-17 @ 03:15 UTC
(11 minutes ago)
VFR
Clouds
  • Scattered at 3,500' AGL
  • Broken at 5,000' AGL
Temperature Dewpoint
22°C / 72°F 22°C / 72°F
Humidity Altimeter Pressure
100% 30.09" Hg 1019 hPa